Relevés horaires Bierset (Belgique)


Relevés horaires à Bierset - Vendredi 21 Avr. 2017
Heure UTC1 Température [°C] Vent [km/h] Hum. [%] Pres.4 [hPa] Visi. [Km] Nébu. [octa] Préc.5 [mm] Cond.
2m. Res. Ros. Dir.2 Vit. Moy. Raf.3
23:00 9.4 9.4 5.9 O 3.7 5.6 5.6 79 1027.9(-0.8/3h) 15 8/8 -- --
22:00 9.6 9.6 5.9 O 3.7 3.7 5.6 78 1028.2(-0.4/3h) 18 8/8 -- --
21:00 9.7 9.7 5.9 O 3.7 7.4 13.0 77 1028.5(0.1/3h) 18 8/8 -- --
20:00 10.4 10 5.9 ONO 5.6 5.6 11.1 74 1028.6(-0.1/3h) 18 8/8 -- --
19:00 11.0 10.7 6.1 ONO 5.6 7.4 13.0 72 1028.5(-0.4/3h) 18 8/8 -- --
18:00 11.5 10.9 6.1 NO 7.4 11.1 18.5 69 1028.5(-0.7/3h) 18 8/8 0/12h
--
17:00 12.4 11.6 5.9 O 9.3 9.3 13.0 64 1028.6(-0.9/3h) 11 7/8 -- --
16:00 12.4 12.3 6.3 O 5.6 11.1 14.8 66 1028.8(-1.6/3h) 11 7/8 -- --
15:00 12.2 11.1 5.7 ONO 11.1 11.1 18.5 64 1029.1(-1.9/3h) 11 7/8 -- --
14:00 14.6 14.2 6.2 O 9.3 11.1 18.5 57 1029.3(-2.1/3h) 14 7/8 -- --
13:00 13.3 12.4 6.2 OSO 11.1 11.1 18.5 62 1030.3(-1.6/3h) 14 7/8 -- --
12:00 11.5 10.3 3.4 OSO 11.1 11.1 14.8 57 1031.1(-1.2/3h) 14 8/8 0/6h
--
11:00 9.8 8.9 -0.2 SO 7.4 11.1 14.8 50 1031.9(-0.6/3h) 16 8/8 -- --
10:00 9.4 8 -1.4 SO 9.3 9.3 13.0 47 1032.3(0.2/3h) 16 8/8 -- --
09:00 8.4 7.3 -2.2 SO 7.4 9.3 14.8 47 1032.6(0.1/3h) 16 8/8 -- --
08:00 6.6 5.2 -2.4 SSO 7.4 7.4 9.3 53 1032.8(0.2/3h) 16 8/8 -- --
07:00 5.2 4.1 -2.3 S 5.6 5.6 11.1 58 1032.8(0.1/3h) 14 7/8 -- --
06:00 4.1 2.8 -2.9 S 5.6 7.4 16.7 60 1032.9(-0.2/3h) 11 7/8 0/12h
--
05:00 3.5 2.1 -3.5 S 5.6 7.4 16.7 60 1032.8(-0.7/3h) 11 7/8 -- --
04:00 2.9 0.8 -3.6 SSE 7.4 7.4 13.0 62 1032.9(-0.9/3h) 11 6/8 -- --
03:00 3.2 1.8 -3.8 SSE 5.6 5.6 11.1 60 1033.2(-1.0/3h) 11 5/8 -- --
02:00 3.6 3.6 -3.2 SSE 3.7 3.7 9.3 61 1033.5(-0.8/3h) 13 2/8 -- --
01:00 3.8 3.8 -3.3 S 3.7 3.7 7.4 60 1033.8(-0.8/3h) 13 2/8 -- --
00:00 5.1 5.1 -4.0 S 1.9 3.7 5.6 52 1034.1(-0.6/3h) 13 2/8 0/6h
0/24h
--

1 Coordinated Universal Time. Actuellement il est 22:00 locale et 20:00 UTC.

2 Le vent souffle depuis la direction indiquée vers la direction oposée.

3 Les rafales max. sont disponible 40 min après l'heure du relevé.

4 Pour les stations d'altitude (plus de 600m) le géopotentiel du niveau le plus proche de la pression obligatoire est indiqué.

5 Les stations disposant d'un diffuseur peuvent indiquer "trace". Cela signifie que des précipitations ont touchés le sol mais que la quantité est inférieure à 0.1 mm.

Récapitulatif de la journée
Température [°C] Vent [km/h] Ensoleillement4 [h] Precipitations totale5 [mm] Pression [Hpa]
Min1 Max.2 Moy.3 Max. Min Max.
2.8 14.7 7.8 18.5 0 h 0 min 0 1027.9 1034.1

1 Température minimale relevée entre 18:00 UTC la veille et 18:00 UTC le jour donné.

2 Température maximale relevée entre 06:00 UTC le jour donné et 06:00 UTC le lendemain.

3 Vent moyen de la journée basé sur les relevés horaires.

4 Ensoleillement en heures relevé entre 06:00 UTC la veille et 06:00 UTC le jour donné.

5 Précipitations totales tombées entre 06:00 UTC la jour donné et 06:00 UTC le lendemain.

Graphiques horaires